createdAt,value
2022-09-09T00:00:01.783Z,22.5
2022-09-09T00:05:40.504Z,22.5
2022-09-09T00:11:18.039Z,22.5
2022-09-09T05:00:04.876Z,22.2
2022-09-09T05:05:43.123Z,22.2
2022-09-09T05:11:04.640Z,22.2
2022-09-09T05:16:45.556Z,22.2
2022-09-09T05:22:28.980Z,22.2
2022-09-09T05:27:50.967Z,22.3
2022-09-09T05:33:01.145Z,22.2
2022-09-09T05:38:42.290Z,22.3
2022-09-09T05:44:20.160Z,22.3
2022-09-09T05:49:58.615Z,22.3
2022-09-09T05:55:36.287Z,22.3
2022-09-09T06:00:58.038Z,22.3
2022-09-09T06:06:40.703Z,22.3
2022-09-09T06:12:19.202Z,22.3
2022-09-09T06:17:56.439Z,22.3
2022-09-09T06:23:33.999Z,22.4
2022-09-09T06:29:11.914Z,22.4
2022-09-09T06:34:50.238Z,22.4
2022-09-09T06:40:28.305Z,22.4
2022-09-09T06:46:05.966Z,22.4
2022-09-09T06:51:44.688Z,22.4
2022-09-09T06:57:44.394Z,22.4
2022-09-09T07:02:36.027Z,22.4
2022-09-09T07:07:57.827Z,22.4
2022-09-09T07:13:43.761Z,22.4
2022-09-09T07:19:25.647Z,22.4
2022-09-09T07:25:03.857Z,22.4
2022-09-09T07:30:48.944Z,22.4
2022-09-09T07:36:30.114Z,22.4
2022-09-09T07:42:09.760Z,22.4
2022-09-09T07:47:33.515Z,22.4
2022-09-09T07:53:15.268Z,22.4
2022-09-09T07:58:56.036Z,22.4
2022-09-09T08:04:18.574Z,22.4
2022-09-09T08:09:56.606Z,22.5
2022-09-09T08:16:06.140Z,22.4
2022-09-09T08:21:27.847Z,22.5
2022-09-09T08:27:05.993Z,22.5
2022-09-09T08:32:45.465Z,22.5
2022-09-09T08:38:28.843Z,22.5
2022-09-09T08:44:10.399Z,22.5
2022-09-09T08:49:38.225Z,22.5
2022-09-09T08:55:25.084Z,22.5
2022-09-09T09:00:32.112Z,22.5
2022-09-09T13:35:16.931Z,22.6
2022-09-09T13:40:57.805Z,22.6
2022-09-09T13:46:35.712Z,22.7
2022-09-09T13:52:16.273Z,22.7
2022-09-09T13:57:38.679Z,22.6
2022-09-09T14:03:46.035Z,22.6
2022-09-09T14:09:24.176Z,22.6
2022-09-09T14:15:02.218Z,22.6
2022-09-09T14:20:39.608Z,22.7
2022-09-09T14:26:23.463Z,22.7
2022-09-09T14:32:15.709Z,22.7
2022-09-09T14:37:36.926Z,22.7
2022-09-09T14:43:15.679Z,22.8
2022-09-09T14:48:37.902Z,22.7
2022-09-09T14:54:01.468Z,22.8
2022-09-09T14:59:39.603Z,22.8
2022-09-09T15:05:18.780Z,22.8
2022-09-09T15:10:55.771Z,22.8
2022-09-09T15:16:37.282Z,22.8
2022-09-09T15:22:19.595Z,22.8
2022-09-09T15:27:57.856Z,22.8
2022-09-09T15:33:36.616Z,22.8
2022-09-09T15:39:13.928Z,22.8
2022-09-09T15:44:52.000Z,22.8
2022-09-09T15:50:35.131Z,22.8
2022-09-09T15:56:35.596Z,22.8
2022-09-09T16:02:13.874Z,22.8
2022-09-09T16:07:57.465Z,22.8
2022-09-09T16:13:40.467Z,22.8
2022-09-09T16:19:17.031Z,22.8
2022-09-09T16:24:55.024Z,22.8
2022-09-09T16:30:36.508Z,22.8
2022-09-09T16:36:19.217Z,22.9
2022-09-09T16:41:56.493Z,22.9
2022-09-09T16:47:35.255Z,22.9
2022-09-09T16:53:12.219Z,22.9
2022-09-09T16:58:50.363Z,22.9
2022-09-09T17:04:34.334Z,22.9
2022-09-09T17:10:12.538Z,22.9
2022-09-09T17:15:34.816Z,22.9
2022-09-09T17:21:42.672Z,22.9
2022-09-09T17:27:21.870Z,22.9
2022-09-09T17:32:44.428Z,22.9
2022-09-09T17:38:25.510Z,22.9
2022-09-09T17:43:48.781Z,22.9
2022-09-09T17:49:11.609Z,22.9
2022-09-09T17:54:49.296Z,22.9
2022-09-09T18:00:26.706Z,22.9
2022-09-09T18:06:06.155Z,22.9
2022-09-09T18:11:43.935Z,22.9
2022-09-09T18:17:20.255Z,22.9
2022-09-09T18:22:57.839Z,22.9
2022-09-09T18:28:38.785Z,22.8
2022-09-09T18:34:16.127Z,22.9
2022-09-09T18:39:57.939Z,22.9
2022-09-09T18:45:36.239Z,22.9
2022-09-09T18:51:13.128Z,22.9
2022-09-09T18:56:35.702Z,22.9
2022-09-09T19:02:13.783Z,22.9
2022-09-09T19:07:51.054Z,22.9
2022-09-09T19:13:20.387Z,22.8
2022-09-09T19:18:58.137Z,22.8
2022-09-09T19:24:19.755Z,22.9
2022-09-09T19:29:41.815Z,22.8
2022-09-09T19:36:11.866Z,22.8
2022-09-09T19:41:18.572Z,22.8
2022-09-09T19:46:41.376Z,22.8
2022-09-09T19:52:19.579Z,22.8
2022-09-09T19:57:58.217Z,22.8
2022-09-09T20:03:59.323Z,22.8
2022-09-09T20:09:37.397Z,22.8
2022-09-09T20:15:14.168Z,22.8
2022-09-09T20:20:52.417Z,22.9
2022-09-09T20:26:19.110Z,22.8
2022-09-09T20:32:01.899Z,22.8
2022-09-09T20:37:39.537Z,22.8
2022-09-09T20:43:18.992Z,22.8
2022-09-09T20:48:59.652Z,22.8
2022-09-09T20:54:39.904Z,22.8
2022-09-09T21:00:17.406Z,22.8
2022-09-09T21:05:58.315Z,22.8
2022-09-09T21:11:36.063Z,22.8
2022-09-09T21:17:14.421Z,22.8
2022-09-09T21:22:35.652Z,22.8
2022-09-09T21:28:13.274Z,22.7
2022-09-09T21:34:00.435Z,22.7
2022-09-09T21:39:42.691Z,22.8
2022-09-09T21:45:20.176Z,22.8
2022-09-09T21:51:02.457Z,22.8
2022-09-09T21:56:24.569Z,22.8
2022-09-09T22:01:47.089Z,22.8
2022-09-09T22:07:26.444Z,22.8
2022-09-09T22:12:48.080Z,22.8
2022-09-09T22:18:24.520Z,22.8
2022-09-09T22:24:02.547Z,22.8
2022-09-09T22:29:24.282Z,22.8
2022-09-09T22:34:46.280Z,22.8
2022-09-09T22:40:24.538Z,22.9
2022-09-09T22:45:15.052Z,22.9
2022-09-09T22:50:40.195Z,22.9
2022-09-09T22:56:19.529Z,22.8
2022-09-09T23:01:58.027Z,22.9
2022-09-09T23:07:35.186Z,22.9
2022-09-09T23:12:57.675Z,22.9
2022-09-09T23:18:19.877Z,22.9
2022-09-09T23:23:56.673Z,22.9
2022-09-09T23:29:34.701Z,22.9
2022-09-09T23:34:41.304Z,22.9
2022-09-09T23:39:48.061Z,22.9
2022-09-09T23:44:55.291Z,22.9
2022-09-09T23:50:01.415Z,22.9
2022-09-09T23:55:23.586Z,22.9
